createdAt,value
2022-12-04T00:04:10.259Z,32.73
2022-12-04T00:09:13.339Z,20.77
2022-12-04T00:14:16.394Z,17.50
2022-12-04T00:19:19.982Z,17.10
2022-12-04T00:24:22.972Z,19.97
2022-12-04T00:29:26.136Z,20.57
2022-12-04T00:34:29.092Z,27.07
2022-12-04T00:39:32.119Z,32.77
2022-12-04T00:44:35.093Z,37.67
2022-12-04T00:49:38.096Z,36.30
2022-12-04T00:54:41.111Z,39.07
2022-12-04T00:59:44.283Z,38.83
2022-12-04T01:04:47.461Z,42.80
2022-12-04T01:09:50.627Z,41.80
2022-12-04T01:14:53.957Z,39.53
2022-12-04T01:19:57.287Z,39.33
2022-12-04T01:25:00.499Z,42.33
2022-12-04T01:30:04.162Z,43.77
2022-12-04T01:35:07.567Z,40.93
2022-12-04T01:40:17.505Z,46.23
2022-12-04T01:45:42.817Z,52.30
2022-12-04T01:50:47.889Z,47.17
2022-12-04T01:55:51.534Z,53.57
2022-12-04T02:01:00.761Z,54.07
2022-12-04T02:06:06.026Z,57.57
2022-12-04T02:11:24.232Z,56.20
2022-12-04T02:16:47.346Z,59.07
2022-12-04T02:21:53.639Z,61.83
2022-12-04T02:27:01.751Z,56.50
2022-12-04T02:32:25.496Z,58.70
2022-12-04T02:37:43.771Z,56.97
2022-12-04T02:42:52.070Z,59.60
2022-12-04T02:47:58.953Z,61.67
2022-12-04T02:53:19.016Z,50.50
2022-12-04T02:58:41.962Z,56.63
2022-12-04T03:04:06.247Z,58.40
2022-12-04T03:09:38.163Z,53.97
2022-12-04T03:14:50.230Z,59.60
2022-12-04T03:20:01.795Z,56.93
2022-12-04T03:25:06.481Z,59.30
2022-12-04T03:30:22.261Z,59.40
2022-12-04T03:35:37.826Z,69.60
2022-12-04T03:41:01.940Z,63.63
2022-12-04T03:46:09.675Z,57.10
2022-12-04T03:51:38.984Z,55.43
2022-12-04T03:56:50.868Z,57.43
2022-12-04T04:01:57.990Z,54.70
2022-12-04T04:07:13.522Z,55.83
2022-12-04T04:12:23.764Z,60.30
2022-12-04T04:17:48.653Z,65.03
2022-12-04T04:23:15.348Z,55.83
2022-12-04T04:28:47.758Z,63.23
2022-12-04T04:33:59.622Z,58.50
2022-12-04T04:39:11.838Z,62.40
2022-12-04T04:44:30.796Z,65.63
2022-12-04T04:49:37.506Z,66.30
2022-12-04T04:54:41.205Z,66.13
2022-12-04T04:59:44.194Z,69.07
2022-12-04T05:04:47.168Z,76.40
2022-12-04T05:09:50.136Z,77.33
2022-12-04T05:14:53.108Z,75.50
2022-12-04T05:19:58.949Z,73.93
2022-12-04T05:25:02.600Z,76.30
2022-12-04T05:30:06.418Z,75.80
2022-12-04T05:35:11.482Z,81.50
2022-12-04T05:40:15.052Z,77.83
2022-12-04T05:45:18.177Z,74.70
2022-12-04T05:50:21.461Z,91.93
2022-12-04T05:55:24.461Z,89.50
2022-12-04T06:00:27.760Z,82.03
2022-12-04T06:05:32.426Z,73.87
2022-12-04T06:10:35.791Z,91.67
2022-12-04T06:15:41.266Z,108.93
2022-12-04T06:20:44.342Z,131.53
2022-12-04T06:25:47.327Z,109.77
2022-12-04T06:30:50.288Z,117.60
2022-12-04T06:36:06.574Z,89.10
2022-12-04T06:41:12.152Z,85.57
2022-12-04T06:46:19.119Z,97.77
2022-12-04T06:51:26.856Z,84.60
2022-12-04T06:56:31.966Z,83.70
2022-12-04T07:01:35.663Z,88.00
2022-12-04T07:06:40.274Z,93.90
2022-12-04T07:11:44.356Z,86.73
2022-12-04T07:16:47.389Z,84.73
2022-12-04T07:21:50.472Z,86.53
2022-12-04T07:26:53.490Z,90.23
2022-12-04T07:31:56.748Z,77.90
2022-12-04T07:36:59.745Z,91.73
2022-12-04T07:42:02.800Z,88.07
2022-12-04T07:47:05.908Z,100.30
2022-12-04T07:52:08.878Z,93.97
2022-12-04T07:57:11.852Z,108.47
2022-12-04T08:02:14.814Z,82.87
2022-12-04T08:07:18.238Z,83.90
2022-12-04T08:12:21.191Z,93.90
2022-12-04T08:17:24.279Z,90.57
2022-12-04T08:22:27.430Z,88.60
2022-12-04T08:27:30.448Z,98.07
2022-12-04T08:32:34.888Z,87.57
2022-12-04T08:37:37.892Z,80.63
2022-12-04T08:42:40.923Z,83.43
2022-12-04T08:47:47.922Z,81.43
2022-12-04T08:52:53.738Z,89.47
2022-12-04T08:57:56.786Z,84.37
2022-12-04T09:02:59.820Z,82.07
2022-12-04T09:08:02.865Z,86.70
2022-12-04T09:13:06.407Z,87.27
2022-12-04T09:18:10.157Z,90.03
2022-12-04T09:23:13.128Z,85.03
2022-12-04T09:28:16.086Z,80.43
2022-12-04T09:33:19.122Z,93.50
2022-12-04T09:38:22.106Z,93.63
2022-12-04T09:43:31.026Z,91.07
2022-12-04T09:48:37.631Z,84.63
2022-12-04T09:53:53.381Z,83.60
2022-12-04T09:59:14.601Z,92.87
2022-12-04T10:04:18.081Z,85.77
2022-12-04T10:09:42.206Z,93.60
2022-12-04T10:15:28.734Z,89.27
2022-12-04T10:20:31.725Z,93.83
2022-12-04T10:25:38.783Z,97.40
2022-12-04T10:30:43.312Z,91.60
2022-12-04T10:35:52.389Z,101.13
2022-12-04T10:41:00.293Z,104.10
2022-12-04T10:46:03.379Z,93.43
2022-12-04T10:51:09.440Z,99.57
2022-12-04T10:56:14.736Z,98.37
2022-12-04T11:01:17.831Z,94.43
2022-12-04T11:06:26.479Z,94.77
2022-12-04T11:11:34.849Z,98.90
2022-12-04T11:16:48.550Z,99.50
2022-12-04T11:21:53.496Z,99.20
2022-12-04T11:26:58.082Z,95.60
2022-12-04T11:32:07.600Z,102.40
2022-12-04T11:37:23.037Z,90.33
2022-12-04T11:42:28.501Z,107.07
2022-12-04T11:47:33.752Z,102.20
2022-12-04T11:53:05.603Z,96.87
2022-12-04T11:58:08.576Z,100.87
2022-12-04T12:03:28.269Z,95.43
2022-12-04T12:08:38.166Z,101.40
2022-12-04T12:13:56.299Z,93.60
2022-12-04T12:19:43.990Z,96.47
2022-12-04T12:25:07.983Z,95.20
2022-12-04T12:30:17.926Z,92.83
2022-12-04T12:35:29.565Z,103.27
2022-12-04T12:40:47.986Z,104.73
2022-12-04T12:45:56.997Z,108.30
2022-12-04T12:51:29.635Z,103.77
2022-12-04T12:56:49.816Z,111.60
2022-12-04T13:02:04.125Z,113.87
2022-12-04T13:07:26.507Z,99.87
2022-12-04T13:13:30.220Z,103.70
2022-12-04T13:18:55.690Z,103.10
2022-12-04T13:24:40.384Z,101.07
2022-12-04T13:30:05.864Z,111.83
2022-12-04T13:35:46.336Z,107.33
2022-12-04T13:41:11.294Z,114.73
2022-12-04T13:46:23.317Z,108.33
2022-12-04T13:51:38.409Z,111.63
2022-12-04T13:56:43.845Z,108.27
2022-12-04T14:01:52.131Z,107.83
2022-12-04T14:07:00.249Z,115.93
2022-12-04T14:12:05.967Z,107.80
2022-12-04T14:17:38.825Z,114.20
2022-12-04T14:22:44.408Z,112.00
2022-12-04T14:27:52.678Z,108.90
2022-12-04T14:33:22.737Z,119.63
2022-12-04T14:38:26.414Z,114.77
2022-12-04T14:43:50.536Z,127.50
2022-12-04T14:49:04.201Z,119.27
2022-12-04T14:54:10.042Z,118.30
2022-12-04T14:59:23.706Z,109.17
2022-12-04T15:04:33.573Z,124.37
2022-12-04T15:09:54.999Z,123.50
2022-12-04T15:15:09.656Z,115.23
2022-12-04T15:20:18.187Z,118.30
2022-12-04T15:25:28.052Z,119.60
2022-12-04T15:30:35.876Z,115.70
2022-12-04T15:35:43.176Z,117.87
2022-12-04T15:41:00.587Z,109.10
2022-12-04T15:46:22.679Z,117.03
2022-12-04T15:51:25.784Z,113.90
2022-12-04T15:56:29.667Z,117.83
2022-12-04T16:01:40.531Z,118.83
2022-12-04T16:06:48.506Z,123.87
2022-12-04T16:12:25.950Z,125.40
2022-12-04T16:17:34.274Z,111.97
2022-12-04T16:22:39.321Z,122.93
2022-12-04T16:27:42.419Z,117.13
2022-12-04T16:32:45.462Z,121.07
2022-12-04T16:37:49.009Z,131.17
2022-12-04T16:42:52.082Z,117.63
2022-12-04T16:47:58.152Z,118.43
2022-12-04T16:53:01.198Z,120.87
2022-12-04T16:58:05.912Z,114.33
2022-12-04T17:03:11.100Z,114.40
2022-12-04T17:08:14.300Z,120.20
2022-12-04T17:13:21.824Z,116.10
2022-12-04T17:18:24.883Z,118.27
2022-12-04T17:23:27.968Z,111.37
2022-12-04T17:28:31.139Z,125.43
2022-12-04T17:33:34.240Z,129.10
2022-12-04T17:38:46.476Z,129.17
2022-12-04T17:43:49.553Z,126.20
2022-12-04T17:48:52.683Z,130.43
2022-12-04T17:53:55.803Z,124.53
2022-12-04T17:58:58.850Z,140.30
2022-12-04T18:04:04.989Z,121.40
2022-12-04T18:09:12.822Z,125.07
2022-12-04T18:14:23.983Z,125.43
2022-12-04T18:19:29.369Z,145.93
2022-12-04T18:24:33.084Z,133.93
2022-12-04T18:29:37.579Z,119.47
2022-12-04T18:34:40.699Z,89.40
2022-12-04T18:39:43.758Z,82.97
2022-12-04T18:44:47.652Z,87.67
2022-12-04T18:49:50.731Z,86.90
2022-12-04T18:54:54.010Z,104.83
2022-12-04T19:00:00.039Z,67.57
2022-12-04T19:05:03.423Z,84.97
2022-12-04T19:10:11.406Z,86.77
2022-12-04T19:15:14.969Z,106.20
2022-12-04T19:20:18.496Z,84.57
2022-12-04T19:25:21.483Z,68.07
2022-12-04T19:30:24.475Z,68.10
2022-12-04T19:35:27.808Z,59.00
2022-12-04T19:40:30.866Z,62.73
2022-12-04T19:45:34.000Z,61.63
2022-12-04T19:50:37.088Z,57.33
2022-12-04T19:55:40.145Z,60.83
2022-12-04T20:00:43.212Z,59.53
2022-12-04T20:05:46.351Z,61.37
2022-12-04T20:10:49.438Z,56.53
2022-12-04T20:15:52.459Z,54.67
2022-12-04T20:20:57.868Z,53.07
2022-12-04T20:26:08.464Z,57.73
2022-12-04T20:31:18.768Z,54.07
2022-12-04T20:36:24.142Z,54.37
2022-12-04T20:41:31.318Z,50.93
2022-12-04T20:46:37.643Z,52.93
2022-12-04T20:51:43.459Z,52.53
2022-12-04T20:56:48.983Z,54.73
2022-12-04T21:01:53.082Z,53.07
2022-12-04T21:06:56.093Z,60.73
2022-12-04T21:11:59.238Z,53.30
2022-12-04T21:17:02.749Z,53.63
2022-12-04T21:22:06.158Z,49.37
2022-12-04T21:27:13.302Z,55.57
2022-12-04T21:32:19.978Z,47.87
2022-12-04T21:37:23.035Z,49.93
2022-12-04T21:42:30.553Z,48.87
2022-12-04T21:47:33.942Z,46.97
2022-12-04T21:52:37.104Z,43.73
2022-12-04T21:57:41.143Z,42.57
2022-12-04T22:02:44.288Z,51.07
2022-12-04T22:07:47.466Z,44.13
2022-12-04T22:12:50.948Z,44.63
2022-12-04T22:17:54.348Z,49.13
2022-12-04T22:22:57.541Z,42.77
2022-12-04T22:28:01.068Z,48.63
2022-12-04T22:33:04.900Z,45.27
2022-12-04T22:38:08.022Z,44.37
2022-12-04T22:43:11.053Z,40.50
2022-12-04T22:48:14.149Z,43.33
2022-12-04T22:53:17.197Z,44.93
2022-12-04T22:58:20.550Z,42.17
2022-12-04T23:03:23.604Z,42.10
2022-12-04T23:08:26.671Z,45.07
2022-12-04T23:13:29.720Z,47.03
2022-12-04T23:18:33.288Z,44.70
2022-12-04T23:23:38.320Z,42.23
2022-12-04T23:28:41.818Z,43.30
2022-12-04T23:33:44.944Z,40.80
2022-12-04T23:38:48.994Z,43.63
2022-12-04T23:43:53.068Z,44.20
2022-12-04T23:48:56.426Z,43.40
2022-12-04T23:53:59.474Z,43.07
2022-12-04T23:59:02.477Z,47.33
